createdAt,value
2023-03-16T00:05:36.607Z,62.98
2023-03-16T00:16:00.715Z,62.93
2023-03-16T00:26:22.852Z,62.85
2023-03-16T00:36:43.897Z,62.72
2023-03-16T00:47:06.696Z,62.73
2023-03-16T00:57:30.529Z,63.17
2023-03-16T01:07:52.766Z,63.03
2023-03-16T01:18:14.307Z,63.08
2023-03-16T01:28:35.776Z,62.76
2023-03-16T01:38:57.835Z,62.63
2023-03-16T01:49:25.386Z,62.84
2023-03-16T02:00:11.040Z,63.16
2023-03-16T02:10:47.910Z,62.47
2023-03-16T02:21:38.405Z,62.54
2023-03-16T02:32:00.245Z,63.03
2023-03-16T02:42:24.244Z,62.94
2023-03-16T02:52:48.745Z,62.66
2023-03-16T03:03:10.252Z,62.54
2023-03-16T03:13:32.570Z,62.75
2023-03-16T03:23:54.647Z,62.65
2023-03-16T03:34:15.895Z,62.95
2023-03-16T03:44:37.914Z,63.03
2023-03-16T03:54:59.607Z,62.40
2023-03-16T04:05:22.108Z,62.72
2023-03-16T04:15:47.166Z,62.68
2023-03-16T04:26:14.004Z,62.41
2023-03-16T04:36:42.238Z,62.11
2023-03-16T04:47:04.807Z,62.69
2023-03-16T04:57:32.488Z,62.09
2023-03-16T05:07:54.674Z,62.60
2023-03-16T05:18:16.600Z,62.69
2023-03-16T05:28:37.919Z,62.19
2023-03-16T05:39:02.954Z,62.14
2023-03-16T05:49:29.643Z,62.05
2023-03-16T05:59:53.029Z,62.49
2023-03-16T06:10:17.336Z,62.53
2023-03-16T06:20:38.660Z,62.00
2023-03-16T06:31:01.244Z,61.99
2023-03-16T06:41:27.245Z,62.25
2023-03-16T06:51:48.739Z,62.18
2023-03-16T07:02:13.998Z,62.00
2023-03-16T07:12:36.952Z,62.40
2023-03-16T07:22:58.852Z,62.66
2023-03-16T07:33:20.999Z,62.53
2023-03-16T07:43:44.700Z,62.23
2023-03-16T07:54:08.965Z,62.48
2023-03-16T08:04:31.583Z,63.13
2023-03-16T08:14:54.895Z,62.93
2023-03-16T08:25:21.927Z,63.34
2023-03-16T08:35:59.217Z,62.88
2023-03-16T08:46:21.637Z,63.54
2023-03-16T08:56:49.560Z,63.06
2023-03-16T09:07:11.687Z,63.54
2023-03-16T09:17:33.622Z,63.70
2023-03-16T09:27:55.973Z,63.38
2023-03-16T09:38:18.088Z,63.86
2023-03-16T09:48:40.078Z,63.79
2023-03-16T09:59:01.718Z,63.70
2023-03-16T10:09:35.193Z,63.53
2023-03-16T10:20:09.407Z,63.21
2023-03-16T10:30:36.625Z,63.64
2023-03-16T10:41:00.984Z,63.13
2023-03-16T10:51:26.551Z,62.93
2023-03-16T11:01:50.271Z,63.66
2023-03-16T11:12:30.420Z,63.13
2023-03-16T11:22:52.356Z,63.67
2023-03-16T11:33:15.548Z,63.36
2023-03-16T11:43:39.611Z,63.32
2023-03-16T11:54:11.395Z,63.74
2023-03-16T12:04:51.340Z,63.51
2023-03-16T12:15:35.107Z,63.68
2023-03-16T12:26:00.077Z,63.80
2023-03-16T12:36:43.223Z,63.63
2023-03-16T12:47:15.447Z,64.13
2023-03-16T12:57:37.579Z,64.24
2023-03-16T13:08:05.705Z,63.93
2023-03-16T13:18:35.468Z,63.79
2023-03-16T13:28:56.929Z,63.73
2023-03-16T13:39:20.995Z,63.85
2023-03-16T13:49:50.985Z,63.63
2023-03-16T14:00:25.085Z,63.70
2023-03-16T14:10:47.058Z,63.26
2023-03-16T14:21:16.754Z,63.47
2023-03-16T14:31:39.913Z,63.84
2023-03-16T14:42:05.598Z,63.60
2023-03-16T14:52:31.871Z,63.44
2023-03-16T15:03:05.274Z,63.34
2023-03-16T15:13:42.924Z,62.47
2023-03-16T15:24:04.102Z,62.90
2023-03-16T15:34:27.546Z,62.31
2023-03-16T15:44:49.105Z,62.50
2023-03-16T15:55:20.217Z,62.59
2023-03-16T16:05:41.284Z,62.64
2023-03-16T16:16:02.826Z,62.51
2023-03-16T16:26:51.961Z,63.01
2023-03-16T16:37:15.363Z,63.24
2023-03-16T16:47:36.947Z,63.42
2023-03-16T16:57:58.231Z,63.87
2023-03-16T17:08:20.161Z,63.86
2023-03-16T17:18:41.766Z,64.04
2023-03-16T17:29:28.321Z,63.79
2023-03-16T17:39:49.701Z,63.67
2023-03-16T17:50:31.836Z,63.62
2023-03-16T18:00:57.582Z,63.16
2023-03-16T18:11:29.872Z,63.44
2023-03-16T18:21:53.777Z,63.03
2023-03-16T18:32:26.290Z,63.48
2023-03-16T18:42:47.811Z,63.06
2023-03-16T18:53:14.128Z,63.01
2023-03-16T19:03:39.533Z,62.54
2023-03-16T19:14:00.588Z,62.42
2023-03-16T19:24:26.978Z,61.80
2023-03-16T19:34:48.673Z,61.44
2023-03-16T19:45:31.791Z,62.06
2023-03-16T19:55:54.088Z,61.56
2023-03-16T20:06:19.195Z,61.65
2023-03-16T20:16:41.076Z,61.46
2023-03-16T20:27:03.549Z,61.87
2023-03-16T20:37:27.371Z,61.41
2023-03-16T20:47:49.125Z,61.76
2023-03-16T20:58:25.748Z,61.36
2023-03-16T21:08:46.931Z,61.07
2023-03-16T21:19:20.050Z,61.42
2023-03-16T21:29:41.047Z,60.95
2023-03-16T21:40:02.176Z,60.83
2023-03-16T21:50:26.688Z,60.38
2023-03-16T22:00:48.360Z,60.99
2023-03-16T22:11:16.566Z,61.13
2023-03-16T22:21:38.511Z,60.81
2023-03-16T22:32:04.616Z,61.22
2023-03-16T22:42:29.321Z,61.16
2023-03-16T22:52:51.917Z,60.95
2023-03-16T23:03:17.190Z,61.20
2023-03-16T23:13:38.818Z,61.25
2023-03-16T23:24:03.851Z,60.65
2023-03-16T23:34:26.778Z,61.20
2023-03-16T23:44:47.801Z,61.34
2023-03-16T23:55:13.586Z,60.73
